createdAt,value
2024-02-02T00:00:18.755Z,4.10
2024-02-02T00:02:45.444Z,4.14
2024-02-02T00:05:12.009Z,4.18
2024-02-02T00:07:38.546Z,4.15
2024-02-02T00:10:05.661Z,3.97
2024-02-02T00:12:32.825Z,4.08
2024-02-02T00:14:59.608Z,4.03
2024-02-02T00:17:26.966Z,3.93
2024-02-02T00:19:53.513Z,3.98
2024-02-02T00:22:22.162Z,3.97
2024-02-02T00:24:48.900Z,3.91
2024-02-02T00:27:16.199Z,3.90
2024-02-02T00:29:47.638Z,3.93
2024-02-02T00:32:14.925Z,3.76
2024-02-02T00:34:42.907Z,3.88
2024-02-02T00:37:09.832Z,4.00
2024-02-02T00:39:36.555Z,3.83
2024-02-02T00:42:03.332Z,4.07
2024-02-02T00:44:29.980Z,4.09
2024-02-02T00:46:56.540Z,4.15
2024-02-02T00:49:24.808Z,4.18
2024-02-02T00:51:52.123Z,4.19
2024-02-02T00:54:19.707Z,4.19
2024-02-02T00:56:46.675Z,4.22
2024-02-02T00:59:13.322Z,4.01
2024-02-02T01:01:40.692Z,4.14
2024-02-02T01:04:07.234Z,4.08
2024-02-02T01:06:34.153Z,4.10
2024-02-02T01:09:01.016Z,4.02
2024-02-02T01:11:28.107Z,4.07
2024-02-02T01:13:55.516Z,4.01
2024-02-02T01:16:22.678Z,3.98
2024-02-02T01:18:49.364Z,4.11
2024-02-02T01:21:16.462Z,4.13
2024-02-02T01:23:43.080Z,4.19
2024-02-02T01:26:09.670Z,4.18
2024-02-02T01:28:36.217Z,4.19
2024-02-02T01:31:02.770Z,4.27
2024-02-02T01:33:29.406Z,4.26
2024-02-02T01:35:56.099Z,4.11
2024-02-02T01:38:22.823Z,4.22
2024-02-02T01:40:50.308Z,4.22
2024-02-02T01:43:17.003Z,4.18
2024-02-02T01:45:43.559Z,4.20
2024-02-02T01:48:10.242Z,4.29
2024-02-02T01:50:37.988Z,4.30
2024-02-02T01:53:05.021Z,4.18
2024-02-02T01:55:31.672Z,4.11
2024-02-02T01:57:58.255Z,4.21
2024-02-02T02:00:25.282Z,4.06
2024-02-02T02:02:52.435Z,4.11
2024-02-02T03:06:46.410Z,4.22
2024-02-02T03:09:13.244Z,4.17
2024-02-02T03:11:39.908Z,4.17
2024-02-02T03:14:06.649Z,4.15
2024-02-02T03:16:33.281Z,4.24
2024-02-02T03:19:00.234Z,4.18
2024-02-02T03:21:26.983Z,4.22
2024-02-02T03:23:53.598Z,4.17
2024-02-02T03:26:20.136Z,4.23
2024-02-02T03:28:46.666Z,4.17
2024-02-02T03:31:14.028Z,4.13
2024-02-02T03:33:40.647Z,4.19
2024-02-02T03:36:07.537Z,4.14
2024-02-02T06:19:17.539Z,3.82
2024-02-02T06:21:44.983Z,3.98
2024-02-02T06:24:12.414Z,4.01
2024-02-02T06:26:39.939Z,3.86
2024-02-02T06:29:06.548Z,3.90
2024-02-02T06:31:33.161Z,4.02
2024-02-02T06:33:59.745Z,4.17
2024-02-02T06:36:28.529Z,4.04
2024-02-02T06:38:59.341Z,4.06
2024-02-02T06:41:25.934Z,4.07
2024-02-02T06:43:52.663Z,4.10
2024-02-02T06:46:19.366Z,4.26
2024-02-02T06:48:46.306Z,4.18
2024-02-02T06:51:13.732Z,4.12
2024-02-02T06:53:40.541Z,4.17
2024-02-02T06:56:30.149Z,4.02
2024-02-02T06:58:56.714Z,4.21
2024-02-02T07:01:23.745Z,4.28
2024-02-02T07:03:51.379Z,4.17
2024-02-02T07:06:18.343Z,4.19
2024-02-02T07:08:45.541Z,4.12
2024-02-02T07:11:12.017Z,4.26
2024-02-02T07:13:50.640Z,4.25
2024-02-02T07:16:28.860Z,4.29
2024-02-02T07:18:55.819Z,4.15
2024-02-02T07:21:30.911Z,4.18
2024-02-02T07:23:59.069Z,4.14
2024-02-02T07:26:28.007Z,4.15
2024-02-02T07:28:55.105Z,4.04
2024-02-02T07:31:46.228Z,4.21
2024-02-02T07:34:12.809Z,4.35
2024-02-02T07:36:39.998Z,4.36
2024-02-02T07:39:24.601Z,4.42
2024-02-02T07:41:51.141Z,4.62
2024-02-02T07:44:17.678Z,4.68
2024-02-02T07:46:44.426Z,4.69
2024-02-02T07:49:11.234Z,4.73
2024-02-02T07:51:41.142Z,4.88
2024-02-02T07:54:07.763Z,4.88
2024-02-02T07:56:34.324Z,4.81
2024-02-02T07:59:01.873Z,4.67
2024-02-02T08:01:34.649Z,4.69
2024-02-02T08:04:02.520Z,4.96
2024-02-02T08:06:29.961Z,4.96
2024-02-02T08:08:58.435Z,4.96
2024-02-02T08:11:26.879Z,4.99
2024-02-02T08:13:53.501Z,5.05
2024-02-02T08:16:20.242Z,5.12
2024-02-02T08:18:47.316Z,4.96
2024-02-02T08:21:14.132Z,5.06
2024-02-02T08:23:40.902Z,4.90
2024-02-02T08:26:07.727Z,5.00
2024-02-02T08:28:42.112Z,5.09
2024-02-02T08:31:15.745Z,5.16
2024-02-02T08:33:44.394Z,5.17
2024-02-02T08:36:12.470Z,5.14
2024-02-02T08:38:39.269Z,5.16
2024-02-02T08:41:06.388Z,5.31
2024-02-02T08:43:33.363Z,5.40
2024-02-02T08:46:09.402Z,5.66
2024-02-02T08:48:38.415Z,5.79
2024-02-02T08:51:43.732Z,5.92
2024-02-02T08:54:16.244Z,5.85
2024-02-02T08:57:23.499Z,5.89
2024-02-02T08:59:53.808Z,5.95
2024-02-02T09:02:53.185Z,6.13
2024-02-02T09:05:21.016Z,6.26
2024-02-02T09:07:55.787Z,6.28
2024-02-02T09:10:31.571Z,6.34
2024-02-02T09:13:02.525Z,6.25
2024-02-02T09:15:35.969Z,6.17
2024-02-02T09:18:03.165Z,6.02
2024-02-02T09:20:50.290Z,6.00
2024-02-02T09:23:20.742Z,5.95
2024-02-02T09:25:48.483Z,5.83
2024-02-02T09:28:26.958Z,5.83
2024-02-02T09:31:01.426Z,5.84
2024-02-02T09:33:47.530Z,5.87
2024-02-02T09:36:16.187Z,5.80
2024-02-02T09:38:56.687Z,5.79
2024-02-02T09:41:31.089Z,5.80
2024-02-02T09:44:22.392Z,5.73
2024-02-02T09:47:00.573Z,5.81
2024-02-02T09:49:46.704Z,5.76
2024-02-02T09:52:44.130Z,5.73
2024-02-02T09:55:33.679Z,5.84
2024-02-02T09:58:02.849Z,5.73
2024-02-02T10:01:01.250Z,5.83
2024-02-02T10:03:48.123Z,5.85
2024-02-02T10:07:02.251Z,5.89
2024-02-02T10:09:37.102Z,5.96
2024-02-02T10:12:06.436Z,6.06
2024-02-02T10:15:06.100Z,6.12
2024-02-02T10:17:59.233Z,6.27
2024-02-02T10:21:00.784Z,6.37
2024-02-02T10:24:11.325Z,6.11
2024-02-02T10:26:48.443Z,6.20
2024-02-02T10:29:34.197Z,6.10
2024-02-02T10:32:19.482Z,6.08
2024-02-02T10:35:17.271Z,6.13
2024-02-02T10:37:50.160Z,6.12
2024-02-02T10:40:40.333Z,6.40
2024-02-02T10:43:35.972Z,6.41
2024-02-02T10:46:05.504Z,6.53
2024-02-02T10:49:04.671Z,6.39
2024-02-02T10:52:01.760Z,6.58
2024-02-02T10:55:20.755Z,6.60
2024-02-02T10:58:20.910Z,6.65
2024-02-02T11:01:22.475Z,6.80
2024-02-02T11:04:11.279Z,6.80
2024-02-02T11:07:00.302Z,6.69
2024-02-02T11:09:45.773Z,6.72
2024-02-02T11:12:22.969Z,6.67
2024-02-02T11:14:56.734Z,6.61
2024-02-02T11:17:34.834Z,6.51
2024-02-02T11:20:29.185Z,6.54
2024-02-02T11:23:27.918Z,6.41
2024-02-02T11:25:57.453Z,6.52
2024-02-02T11:28:56.732Z,6.64
2024-02-02T11:31:50.733Z,6.77
2024-02-02T11:34:25.464Z,6.92
2024-02-02T11:37:13.327Z,6.74
2024-02-02T11:39:54.883Z,6.75
2024-02-02T11:42:22.636Z,6.83
2024-02-02T11:44:50.775Z,7.03
2024-02-02T11:47:20.252Z,7.05
2024-02-02T11:49:53.373Z,7.27
2024-02-02T11:52:28.708Z,7.34
2024-02-02T11:55:27.147Z,7.06
2024-02-02T11:58:03.804Z,7.00
2024-02-02T12:01:07.360Z,6.94
2024-02-02T12:04:13.102Z,7.00
2024-02-02T12:07:02.509Z,6.73
2024-02-02T12:09:42.984Z,6.83
2024-02-02T12:12:18.030Z,6.75
2024-02-02T12:14:50.038Z,6.68
2024-02-02T12:17:17.746Z,6.74
2024-02-02T12:19:45.574Z,6.79
2024-02-02T12:22:13.026Z,6.73
2024-02-02T12:24:42.033Z,6.71
2024-02-02T12:27:09.398Z,6.67
2024-02-02T12:29:39.421Z,6.66
2024-02-02T12:32:10.156Z,6.69
2024-02-02T12:34:37.759Z,6.59
2024-02-02T12:37:06.185Z,6.62
2024-02-02T12:39:33.237Z,6.51
2024-02-02T12:42:00.708Z,6.43
2024-02-02T12:44:27.581Z,6.36
2024-02-02T12:46:54.224Z,6.45
2024-02-02T12:49:25.508Z,6.43
2024-02-02T12:51:58.353Z,6.46
2024-02-02T12:54:25.357Z,6.56
2024-02-02T12:56:52.839Z,6.58
2024-02-02T12:59:20.003Z,6.60
2024-02-02T13:01:49.104Z,6.50
2024-02-02T13:04:16.631Z,6.50
2024-02-02T13:06:44.732Z,6.56
2024-02-02T13:09:33.402Z,6.50
2024-02-02T13:12:02.609Z,6.53
2024-02-02T13:14:32.187Z,6.48
2024-02-02T13:17:16.036Z,6.43
2024-02-02T13:19:46.235Z,6.48
2024-02-02T13:22:19.278Z,6.60
2024-02-02T13:24:48.936Z,6.56
2024-02-02T13:27:24.814Z,6.54
2024-02-02T13:30:03.552Z,6.59
2024-02-02T13:32:35.327Z,6.62
2024-02-02T13:35:02.690Z,6.42
2024-02-02T13:37:38.192Z,6.58
2024-02-02T13:40:10.727Z,6.55
2024-02-02T13:42:38.088Z,6.43
2024-02-02T13:45:12.220Z,6.49
2024-02-02T13:47:39.931Z,6.50
2024-02-02T13:50:31.241Z,6.46
2024-02-02T13:53:01.003Z,6.49
2024-02-02T13:55:32.746Z,6.55
2024-02-02T13:58:00.011Z,6.50
2024-02-02T14:00:33.242Z,6.55
2024-02-02T14:03:11.122Z,6.50
2024-02-02T14:05:40.689Z,6.57
2024-02-02T14:08:07.907Z,6.62
2024-02-02T14:10:47.430Z,6.62
2024-02-02T14:13:17.488Z,6.51
2024-02-02T14:15:49.374Z,6.61
2024-02-02T14:18:22.484Z,6.64
2024-02-02T14:20:49.264Z,6.58
2024-02-02T14:23:16.777Z,6.59
2024-02-02T14:25:44.537Z,6.56
2024-02-02T14:28:20.775Z,6.58
2024-02-02T14:30:48.085Z,6.49
2024-02-02T14:33:24.777Z,6.54
2024-02-02T14:35:52.838Z,6.45
2024-02-02T14:38:19.622Z,6.46
2024-02-02T14:40:46.258Z,6.47
2024-02-02T14:43:12.794Z,6.47
2024-02-02T14:45:39.657Z,6.45
2024-02-02T14:48:07.393Z,6.50
2024-02-02T14:50:36.478Z,6.42
2024-02-02T14:53:03.703Z,6.42
2024-02-02T14:55:33.622Z,6.38
2024-02-02T14:58:01.889Z,6.50
2024-02-02T15:00:32.047Z,6.53
2024-02-02T15:02:59.147Z,6.39
2024-02-02T15:05:26.466Z,6.53
2024-02-02T15:07:54.171Z,6.48
2024-02-02T15:10:21.489Z,6.46
2024-02-02T15:12:49.224Z,6.49
2024-02-02T15:15:16.331Z,6.60
2024-02-02T15:17:43.829Z,6.56
2024-02-02T15:20:11.589Z,6.56
2024-02-02T15:22:38.616Z,6.60
2024-02-02T15:25:06.028Z,6.56
2024-02-02T15:27:35.534Z,6.56
2024-02-02T15:30:04.543Z,6.56
2024-02-02T15:32:34.329Z,6.60
2024-02-02T15:35:01.088Z,6.53
2024-02-02T15:37:28.245Z,6.58
2024-02-02T15:39:58.395Z,6.59
2024-02-02T15:42:26.687Z,6.65
2024-02-02T15:44:56.149Z,6.54
2024-02-02T15:47:22.713Z,6.45
2024-02-02T15:49:49.971Z,6.59
2024-02-02T15:52:16.816Z,6.59
2024-02-02T15:54:43.801Z,6.59
2024-02-02T15:57:11.374Z,6.69
2024-02-02T15:59:38.987Z,6.74
2024-02-02T16:02:09.274Z,6.75
2024-02-02T16:04:36.492Z,6.80
2024-02-02T16:07:05.570Z,6.74
2024-02-02T16:09:38.274Z,6.78
2024-02-02T16:12:09.708Z,6.83
2024-02-02T16:14:37.131Z,6.74
2024-02-02T16:17:04.155Z,6.82
2024-02-02T16:19:30.951Z,6.85
2024-02-02T16:21:57.726Z,6.87
2024-02-02T16:24:24.533Z,6.96
2024-02-02T16:26:53.503Z,6.92
2024-02-02T16:29:20.085Z,6.92
2024-02-02T16:31:47.627Z,6.88
2024-02-02T16:34:14.620Z,6.96
2024-02-02T16:36:46.111Z,6.86
2024-02-02T16:39:14.840Z,6.91
2024-02-02T16:41:42.639Z,6.90
2024-02-02T16:44:09.551Z,6.93
2024-02-02T16:46:43.931Z,6.95
2024-02-02T16:49:11.551Z,6.94
2024-02-02T16:51:38.523Z,6.93
2024-02-02T16:54:09.256Z,6.86
2024-02-02T16:56:37.232Z,6.79
2024-02-02T16:59:04.327Z,6.86
2024-02-02T17:01:35.287Z,6.87
2024-02-02T17:04:02.754Z,6.95
2024-02-02T17:06:30.750Z,6.92
2024-02-02T17:08:58.050Z,6.91
2024-02-02T17:11:25.098Z,6.92
2024-02-02T17:13:51.743Z,6.91
2024-02-02T17:16:21.221Z,6.87
2024-02-02T17:18:48.304Z,6.88
2024-02-02T17:21:15.426Z,6.80
2024-02-02T17:23:42.057Z,6.80
2024-02-02T17:26:16.053Z,6.80
2024-02-02T17:28:43.922Z,6.69
2024-02-02T17:31:15.190Z,6.79
2024-02-02T17:33:42.672Z,6.77
2024-02-02T17:36:16.525Z,6.74
2024-02-02T17:38:44.246Z,6.71
2024-02-02T17:41:15.655Z,6.78
2024-02-02T17:43:44.506Z,6.79
2024-02-02T17:46:20.380Z,6.74
2024-02-02T17:48:48.328Z,6.76
2024-02-02T17:51:25.595Z,6.80
2024-02-02T17:53:55.597Z,6.77
2024-02-02T17:56:23.779Z,6.76
2024-02-02T17:58:55.913Z,6.80
2024-02-02T18:01:24.125Z,6.78
2024-02-02T18:03:52.223Z,6.74
2024-02-02T18:06:18.978Z,6.71
2024-02-02T18:08:45.628Z,6.76
2024-02-02T18:11:12.207Z,6.61
2024-02-02T18:13:38.770Z,6.70
2024-02-02T18:16:05.600Z,6.76
2024-02-02T18:18:32.473Z,6.82
2024-02-02T18:20:59.169Z,6.77
2024-02-02T18:23:29.357Z,6.79
2024-02-02T18:25:56.284Z,6.84
2024-02-02T18:28:27.403Z,6.83
2024-02-02T18:30:56.100Z,6.90
2024-02-02T18:33:22.949Z,6.92
2024-02-02T18:35:50.287Z,6.88
2024-02-02T18:38:17.680Z,6.83
2024-02-02T18:40:46.726Z,6.89
2024-02-02T18:43:13.386Z,6.90
2024-02-02T18:45:40.023Z,6.90
2024-02-02T18:48:08.085Z,6.88
2024-02-02T18:50:35.035Z,6.93
2024-02-02T18:53:01.655Z,6.86
2024-02-02T18:55:28.357Z,6.82
2024-02-02T18:57:54.933Z,6.89
2024-02-02T19:00:21.670Z,6.94
2024-02-02T19:02:48.447Z,6.90
2024-02-02T19:05:15.179Z,6.92
2024-02-02T19:07:41.839Z,6.96
2024-02-02T19:10:08.688Z,6.89
2024-02-02T19:12:36.063Z,6.88
2024-02-02T19:15:05.579Z,6.78
2024-02-02T19:17:32.404Z,6.93
2024-02-02T19:20:00.003Z,6.96
2024-02-02T19:22:26.730Z,6.92
2024-02-02T19:24:54.010Z,6.88
2024-02-02T19:27:20.703Z,6.98
2024-02-02T19:29:47.254Z,6.99
2024-02-02T19:32:14.437Z,6.98
2024-02-02T19:34:41.482Z,6.96
2024-02-02T19:37:08.418Z,6.91
2024-02-02T19:39:35.118Z,6.93
2024-02-02T19:42:02.040Z,6.97
2024-02-02T19:44:28.673Z,6.94
2024-02-02T19:46:55.233Z,6.90
2024-02-02T19:49:22.254Z,6.86
2024-02-02T19:51:49.914Z,6.90
2024-02-02T19:54:18.430Z,6.88
2024-02-02T19:56:45.690Z,6.90
2024-02-02T19:59:17.590Z,6.93
2024-02-02T20:01:52.603Z,6.84
2024-02-02T20:04:19.248Z,6.91
2024-02-02T20:06:46.096Z,6.91
2024-02-02T20:09:14.709Z,6.93
2024-02-02T20:11:41.280Z,6.98
2024-02-02T20:14:07.862Z,6.88
2024-02-02T20:16:34.411Z,6.96
2024-02-02T20:19:01.243Z,6.98
2024-02-02T20:21:29.727Z,7.00
2024-02-02T20:23:56.700Z,6.94
2024-02-02T20:26:24.169Z,6.97
2024-02-02T20:28:52.510Z,6.89
2024-02-02T20:31:19.539Z,7.02
2024-02-02T20:33:46.593Z,6.91
2024-02-02T20:36:13.483Z,7.00
2024-02-02T20:38:41.574Z,6.98
2024-02-02T20:41:08.835Z,6.99
2024-02-02T20:43:36.312Z,7.03
2024-02-02T20:46:02.919Z,6.98
2024-02-02T20:48:29.493Z,7.02
2024-02-02T20:50:56.248Z,7.00
2024-02-02T20:53:22.875Z,7.01
2024-02-02T20:55:50.211Z,6.95
2024-02-02T20:58:16.932Z,7.02
2024-02-02T21:00:43.844Z,6.88
2024-02-02T21:03:11.410Z,7.02
2024-02-02T21:05:38.330Z,6.99
2024-02-02T21:08:05.400Z,7.00
2024-02-02T21:10:32.433Z,7.05
2024-02-02T21:12:59.282Z,7.06
2024-02-02T21:15:31.039Z,7.08
2024-02-02T21:17:58.304Z,7.06
2024-02-02T21:20:32.089Z,7.10
2024-02-02T21:22:58.849Z,7.04
2024-02-02T21:25:26.449Z,6.97
2024-02-02T21:27:53.227Z,7.02
2024-02-02T21:30:19.917Z,7.06
2024-02-02T21:32:46.567Z,7.14
2024-02-02T21:35:13.335Z,7.10
2024-02-02T21:37:39.974Z,7.18
2024-02-02T21:40:07.335Z,7.12
2024-02-02T21:42:34.764Z,7.21
2024-02-02T21:45:01.388Z,7.19
2024-02-02T21:47:29.630Z,7.16
2024-02-02T21:49:56.474Z,7.14
2024-02-02T21:52:23.258Z,7.21
2024-02-02T21:54:49.852Z,7.22
2024-02-02T21:57:16.464Z,7.31
2024-02-02T21:59:43.051Z,7.24
2024-02-02T22:02:09.776Z,7.24
2024-02-02T22:04:36.430Z,7.25
2024-02-02T22:07:05.117Z,7.34
2024-02-02T22:09:32.097Z,7.15
2024-02-02T22:11:59.581Z,7.22
2024-02-02T22:14:26.222Z,7.25
2024-02-02T22:16:52.817Z,7.28
2024-02-02T22:19:19.489Z,7.26
2024-02-02T22:21:47.589Z,7.19
2024-02-02T22:24:14.554Z,7.14
2024-02-02T22:26:41.134Z,7.07
2024-02-02T22:29:07.741Z,7.19
2024-02-02T22:31:36.090Z,7.18
2024-02-02T22:34:03.027Z,7.07
2024-02-02T22:36:30.328Z,7.15
2024-02-02T22:38:57.138Z,7.16
2024-02-02T22:41:32.964Z,7.11
2024-02-02T22:44:02.117Z,7.16
2024-02-02T22:46:32.615Z,7.06
2024-02-02T22:48:59.498Z,7.10
2024-02-02T22:51:26.687Z,7.20
2024-02-02T22:53:53.546Z,7.16
2024-02-02T22:56:20.213Z,7.27
2024-02-02T22:58:46.841Z,7.27
2024-02-02T23:01:13.681Z,7.29
2024-02-02T23:03:40.534Z,7.26
2024-02-02T23:06:07.868Z,7.28
2024-02-02T23:08:35.438Z,7.31
2024-02-02T23:11:02.080Z,7.42
2024-02-02T23:13:28.662Z,7.41
2024-02-02T23:15:57.184Z,7.36
2024-02-02T23:18:25.126Z,7.41
2024-02-02T23:20:53.593Z,7.40
2024-02-02T23:23:23.378Z,7.40
2024-02-02T23:25:50.709Z,7.42
2024-02-02T23:28:18.494Z,7.45
2024-02-02T23:30:47.835Z,7.49
2024-02-02T23:33:15.411Z,7.53
2024-02-02T23:35:44.722Z,7.46
2024-02-02T23:38:11.448Z,7.45
2024-02-02T23:40:38.345Z,7.45
2024-02-02T23:43:05.988Z,7.43
2024-02-02T23:45:33.393Z,7.44
2024-02-02T23:48:00.051Z,7.46
2024-02-02T23:50:26.733Z,7.48
2024-02-02T23:52:53.333Z,7.48
2024-02-02T23:55:20.482Z,7.47
2024-02-02T23:57:47.501Z,7.45
